sensor_id;sensor_type;location;lat;lon;timestamp;pressure;altitude;pressure_sealevel;temperature;humidity
48926;BME280;39838;59.938;30.642;2023-04-28T00:02:00;100470.75;;;3.30;89.93
48926;BME280;39838;59.938;30.642;2023-04-28T00:04:27;100463.00;;;3.28;89.61
48926;BME280;39838;59.938;30.642;2023-04-28T00:06:56;100455.22;;;3.25;89.72
48926;BME280;39838;59.938;30.642;2023-04-28T00:09:23;100464.72;;;3.28;89.55
48926;BME280;39838;59.938;30.642;2023-04-28T00:11:50;100463.84;;;3.27;89.51
48926;BME280;39838;59.938;30.642;2023-04-28T00:14:18;100455.09;;;3.21;89.64
48926;BME280;39838;59.938;30.642;2023-04-28T00:16:45;100479.22;;;3.26;89.74
48926;BME280;39838;59.938;30.642;2023-04-28T00:19:12;100468.94;;;3.26;89.27
48926;BME280;39838;59.938;30.642;2023-04-28T00:21:39;100473.13;;;3.24;89.09
48926;BME280;39838;59.938;30.642;2023-04-28T00:24:08;100465.44;;;3.24;89.22
48926;BME280;39838;59.938;30.642;2023-04-28T00:26:35;100460.22;;;3.21;89.26
48926;BME280;39838;59.938;30.642;2023-04-28T00:29:02;100462.75;;;3.19;89.43
48926;BME280;39838;59.938;30.642;2023-04-28T00:31:29;100467.03;;;3.19;89.46
48926;BME280;39838;59.938;30.642;2023-04-28T00:33:57;100472.16;;;3.19;89.33
48926;BME280;39838;59.938;30.642;2023-04-28T00:36:24;100468.75;;;3.20;89.38
48926;BME280;39838;59.938;30.642;2023-04-28T00:38:51;100479.03;;;3.20;89.58
48926;BME280;39838;59.938;30.642;2023-04-28T00:41:20;100477.34;;;3.20;89.53
48926;BME280;39838;59.938;30.642;2023-04-28T00:43:48;100479.03;;;3.20;89.65
48926;BME280;39838;59.938;30.642;2023-04-28T00:46:19;100474.88;;;3.25;89.32
48926;BME280;39838;59.938;30.642;2023-04-28T00:48:48;100478.44;;;3.30;89.55
48926;BME280;39838;59.938;30.642;2023-04-28T00:51:15;100475.00;;;3.29;89.45
48926;BME280;39838;59.938;30.642;2023-04-28T00:53:43;100478.59;;;3.35;89.54
48926;BME280;39838;59.938;30.642;2023-04-28T00:56:10;100477.91;;;3.40;89.48
48926;BME280;39838;59.938;30.642;2023-04-28T00:58:39;100475.38;;;3.42;89.28
48926;BME280;39838;59.938;30.642;2023-04-28T01:01:09;100484.84;;;3.44;89.10
48926;BME280;39838;59.938;30.642;2023-04-28T01:03:38;100483.13;;;3.43;88.84
48926;BME280;39838;59.938;30.642;2023-04-28T01:06:07;100477.97;;;3.43;89.12
48926;BME280;39838;59.938;30.642;2023-04-28T01:08:36;100485.72;;;3.45;89.00
48926;BME280;39838;59.938;30.642;2023-04-28T01:11:03;100486.56;;;3.44;88.94
48926;BME280;39838;59.938;30.642;2023-04-28T01:13:31;100487.50;;;3.46;89.02
48926;BME280;39838;59.938;30.642;2023-04-28T01:16:00;100480.72;;;3.49;88.92
48926;BME280;39838;59.938;30.642;2023-04-28T01:18:27;100491.13;;;3.54;88.86
48926;BME280;39838;59.938;30.642;2023-04-28T01:20:56;100497.09;;;3.53;88.81
48926;BME280;39838;59.938;30.642;2023-04-28T01:23:23;100494.59;;;3.56;89.06
48926;BME280;39838;59.938;30.642;2023-04-28T01:25:52;100498.00;;;3.55;88.73
48926;BME280;39838;59.938;30.642;2023-04-28T01:28:19;100501.41;;;3.54;88.77
48926;BME280;39838;59.938;30.642;2023-04-28T01:30:46;100500.44;;;3.50;88.55
48926;BME280;39838;59.938;30.642;2023-04-28T01:33:13;100504.63;;;3.47;88.35
48926;BME280;39838;59.938;30.642;2023-04-28T01:35:40;100501.97;;;3.44;88.36
48926;BME280;39838;59.938;30.642;2023-04-28T01:38:08;100510.59;;;3.46;88.42
48926;BME280;39838;59.938;30.642;2023-04-28T01:40:35;100503.84;;;3.49;88.08
48926;BME280;39838;59.938;30.642;2023-04-28T01:43:04;100504.72;;;3.50;88.07
48926;BME280;39838;59.938;30.642;2023-04-28T01:45:31;100502.13;;;3.50;88.03
48926;BME280;39838;59.938;30.642;2023-04-28T01:47:58;100498.00;;;3.55;88.17
48926;BME280;39838;59.938;30.642;2023-04-28T01:50:25;100500.63;;;3.56;87.74
48926;BME280;39838;59.938;30.642;2023-04-28T01:52:52;100494.72;;;3.59;87.92
48926;BME280;39838;59.938;30.642;2023-04-28T01:55:20;100496.63;;;3.66;87.80
48926;BME280;39838;59.938;30.642;2023-04-28T01:57:47;100495.97;;;3.73;87.78
48926;BME280;39838;59.938;30.642;2023-04-28T02:00:16;100498.63;;;3.78;87.52
48926;BME280;39838;59.938;30.642;2023-04-28T02:02:44;100488.28;;;3.75;87.47
48926;BME280;39838;59.938;30.642;2023-04-28T02:05:11;100493.47;;;3.76;87.79
48926;BME280;39838;59.938;30.642;2023-04-28T02:07:38;100499.59;;;3.81;87.81
48926;BME280;39838;59.938;30.642;2023-04-28T02:10:06;100503.03;;;3.82;87.41
48926;BME280;39838;59.938;30.642;2023-04-28T02:12:34;100500.50;;;3.83;87.63
48926;BME280;39838;59.938;30.642;2023-04-28T02:15:02;100501.47;;;3.87;87.63
48926;BME280;39838;59.938;30.642;2023-04-28T02:17:33;100494.72;;;3.92;87.69
48926;BME280;39838;59.938;30.642;2023-04-28T02:20:00;100495.84;;;4.00;87.51
48926;BME280;39838;59.938;30.642;2023-04-28T02:22:29;100493.47;;;4.08;87.10
48926;BME280;39838;59.938;30.642;2023-04-28T02:24:56;100496.97;;;4.11;87.40
48926;BME280;39838;59.938;30.642;2023-04-28T02:27:24;100496.19;;;4.14;86.59
48926;BME280;39838;59.938;30.642;2023-04-28T02:29:51;100497.91;;;4.14;86.80
48926;BME280;39838;59.938;30.642;2023-04-28T02:32:18;100491.91;;;4.15;86.12
48926;BME280;39838;59.938;30.642;2023-04-28T02:34:52;100478.19;;;4.14;86.46
48926;BME280;39838;59.938;30.642;2023-04-28T02:37:19;100484.22;;;4.16;86.28
48926;BME280;39838;59.938;30.642;2023-04-28T02:39:47;100485.91;;;4.14;86.37
48926;BME280;39838;59.938;30.642;2023-04-28T02:42:14;100482.47;;;4.14;86.32
48926;BME280;39838;59.938;30.642;2023-04-28T02:44:41;100500.56;;;4.18;85.92
48926;BME280;39838;59.938;30.642;2023-04-28T02:47:08;100491.28;;;4.23;86.18
48926;BME280;39838;59.938;30.642;2023-04-28T02:49:35;100496.56;;;4.29;86.37
48926;BME280;39838;59.938;30.642;2023-04-28T02:52:04;100495.81;;;4.33;85.91
48926;BME280;39838;59.938;30.642;2023-04-28T02:54:31;100489.03;;;4.37;86.05
48926;BME280;39838;59.938;30.642;2023-04-28T02:57:00;100485.66;;;4.39;85.58
48926;BME280;39838;59.938;30.642;2023-04-28T02:59:28;100494.38;;;4.45;85.36
48926;BME280;39838;59.938;30.642;2023-04-28T03:01:55;100494.47;;;4.48;85.62
48926;BME280;39838;59.938;30.642;2023-04-28T03:04:22;100500.47;;;4.48;84.91
48926;BME280;39838;59.938;30.642;2023-04-28T03:06:50;100497.06;;;4.49;85.11
48926;BME280;39838;59.938;30.642;2023-04-28T03:09:18;100494.59;;;4.54;84.99
48926;BME280;39838;59.938;30.642;2023-04-28T03:11:46;100493.84;;;4.58;85.36
48926;BME280;39838;59.938;30.642;2023-04-28T03:14:13;100499.97;;;4.63;85.29
48926;BME280;39838;59.938;30.642;2023-04-28T03:16:40;100502.59;;;4.66;84.94
48926;BME280;39838;59.938;30.642;2023-04-28T03:19:07;100513.84;;;4.70;85.40
48926;BME280;39838;59.938;30.642;2023-04-28T03:21:34;100510.47;;;4.72;84.86
48926;BME280;39838;59.938;30.642;2023-04-28T03:24:01;100508.84;;;4.76;84.53
48926;BME280;39838;59.938;30.642;2023-04-28T03:26:30;100502.06;;;4.79;85.31
48926;BME280;39838;59.938;30.642;2023-04-28T03:28:57;100500.44;;;4.83;84.59
48926;BME280;39838;59.938;30.642;2023-04-28T03:31:24;100505.59;;;4.83;84.93
48926;BME280;39838;59.938;30.642;2023-04-28T03:33:52;100502.19;;;4.85;84.25
48926;BME280;39838;59.938;30.642;2023-04-28T03:36:19;100509.19;;;4.89;84.81
48926;BME280;39838;59.938;30.642;2023-04-28T03:38:46;100520.53;;;4.99;84.52
48926;BME280;39838;59.938;30.642;2023-04-28T03:41:14;100521.56;;;5.06;84.69
48926;BME280;39838;59.938;30.642;2023-04-28T03:43:42;100528.56;;;5.11;84.18
48926;BME280;39838;59.938;30.642;2023-04-28T03:46:09;100522.59;;;5.14;84.17
48926;BME280;39838;59.938;30.642;2023-04-28T03:48:36;100521.00;;;5.19;83.61
48926;BME280;39838;59.938;30.642;2023-04-28T03:51:04;100522.88;;;5.26;83.44
48926;BME280;39838;59.938;30.642;2023-04-28T03:53:31;100521.25;;;5.30;83.45
48926;BME280;39838;59.938;30.642;2023-04-28T03:55:58;100522.97;;;5.31;83.35
48926;BME280;39838;59.938;30.642;2023-04-28T03:58:25;100519.66;;;5.36;84.32
48926;BME280;39838;59.938;30.642;2023-04-28T04:00:54;100519.78;;;5.42;83.78
48926;BME280;39838;59.938;30.642;2023-04-28T04:03:21;100520.72;;;5.46;83.09
48926;BME280;39838;59.938;30.642;2023-04-28T04:05:50;100523.28;;;5.46;82.47
48926;BME280;39838;59.938;30.642;2023-04-28T04:08:18;100527.56;;;5.45;82.73
48926;BME280;39838;59.938;30.642;2023-04-28T04:10:45;100527.53;;;5.42;82.63
48926;BME280;39838;59.938;30.642;2023-04-28T04:13:12;100526.66;;;5.42;82.81
48926;BME280;39838;59.938;30.642;2023-04-28T04:15:39;100524.00;;;5.39;82.32
48926;BME280;39838;59.938;30.642;2023-04-28T04:18:08;100525.69;;;5.37;82.78
48926;BME280;39838;59.938;30.642;2023-04-28T04:20:35;100536.06;;;5.41;82.53
48926;BME280;39838;59.938;30.642;2023-04-28T04:23:02;100543.69;;;5.35;81.66
48926;BME280;39838;59.938;30.642;2023-04-28T04:25:30;100540.19;;;5.33;81.84
48926;BME280;39838;59.938;30.642;2023-04-28T04:27:58;100538.47;;;5.34;81.67
48926;BME280;39838;59.938;30.642;2023-04-28T04:30:25;100533.31;;;5.34;82.25
48926;BME280;39838;59.938;30.642;2023-04-28T04:32:52;100542.88;;;5.38;82.43
48926;BME280;39838;59.938;30.642;2023-04-28T04:35:21;100548.00;;;5.36;82.48
48926;BME280;39838;59.938;30.642;2023-04-28T04:37:48;100548.00;;;5.36;82.15
48926;BME280;39838;59.938;30.642;2023-04-28T04:40:16;100542.91;;;5.39;82.03
48926;BME280;39838;59.938;30.642;2023-04-28T04:42:43;100541.22;;;5.41;82.12
48926;BME280;39838;59.938;30.642;2023-04-28T04:45:10;100543.88;;;5.44;82.28
48926;BME280;39838;59.938;30.642;2023-04-28T04:47:38;100555.81;;;5.41;81.10
48926;BME280;39838;59.938;30.642;2023-04-28T04:50:06;100533.13;;;5.23;81.72
48926;BME280;39838;59.938;30.642;2023-04-28T04:52:35;100549.72;;;5.36;81.53
48926;BME280;39838;59.938;30.642;2023-04-28T04:55:03;100547.28;;;5.42;82.42
48926;BME280;39838;59.938;30.642;2023-04-28T04:57:31;100555.91;;;5.45;82.29
48926;BME280;39838;59.938;30.642;2023-04-28T04:59:58;100549.91;;;5.45;81.87
48926;BME280;39838;59.938;30.642;2023-04-28T05:02:25;100558.53;;;5.47;82.06
48926;BME280;39838;59.938;30.642;2023-04-28T05:04:52;100555.97;;;5.48;81.42
48926;BME280;39838;59.938;30.642;2023-04-28T05:07:19;100549.16;;;5.51;81.51
48926;BME280;39838;59.938;30.642;2023-04-28T05:09:48;100550.91;;;5.52;81.45
48926;BME280;39838;59.938;30.642;2023-04-28T05:12:15;100553.53;;;5.55;82.09
48926;BME280;39838;59.938;30.642;2023-04-28T05:14:42;100554.53;;;5.61;81.51
48926;BME280;39838;59.938;30.642;2023-04-28T05:17:09;100560.69;;;5.68;81.58
48926;BME280;39838;59.938;30.642;2023-04-28T05:19:36;100550.34;;;5.66;81.66
48926;BME280;39838;59.938;30.642;2023-04-28T05:22:04;100554.75;;;5.70;81.16
48926;BME280;39838;59.938;30.642;2023-04-28T05:24:31;100556.47;;;5.71;80.70
48926;BME280;39838;59.938;30.642;2023-04-28T05:27:00;100561.66;;;5.73;80.68
48926;BME280;39838;59.938;30.642;2023-04-28T05:29:28;100554.00;;;5.76;80.88
48926;BME280;39838;59.938;30.642;2023-04-28T05:31:55;100560.03;;;5.77;80.59
48926;BME280;39838;59.938;30.642;2023-04-28T05:34:22;100560.91;;;5.79;80.99
48926;BME280;39838;59.938;30.642;2023-04-28T05:36:50;100556.66;;;5.81;80.58
48926;BME280;39838;59.938;30.642;2023-04-28T05:39:18;100572.13;;;5.81;80.26
48926;BME280;39838;59.938;30.642;2023-04-28T05:41:45;100570.41;;;5.81;80.04
48926;BME280;39838;59.938;30.642;2023-04-28T05:44:14;100565.34;;;5.86;79.74
48926;BME280;39838;59.938;30.642;2023-04-28T05:46:41;100572.38;;;5.91;79.63
48926;BME280;39838;59.938;30.642;2023-04-28T05:49:09;100574.97;;;5.93;80.09
48926;BME280;39838;59.938;30.642;2023-04-28T05:51:36;100568.97;;;5.92;79.80
48926;BME280;39838;59.938;30.642;2023-04-28T05:54:03;100577.59;;;5.96;79.50
48926;BME280;39838;59.938;30.642;2023-04-28T05:56:31;100573.34;;;5.96;79.28
48926;BME280;39838;59.938;30.642;2023-04-28T05:58:59;100581.19;;;6.02;78.94
48926;BME280;39838;59.938;30.642;2023-04-28T06:01:30;100577.72;;;6.00;79.09
48926;BME280;39838;59.938;30.642;2023-04-28T06:03:57;100577.78;;;6.04;79.62
48926;BME280;39838;59.938;30.642;2023-04-28T06:06:24;100571.06;;;6.12;79.63
48926;BME280;39838;59.938;30.642;2023-04-28T06:08:52;100581.44;;;6.16;79.67
48926;BME280;39838;59.938;30.642;2023-04-28T06:11:19;100584.19;;;6.24;78.45
48926;BME280;39838;59.938;30.642;2023-04-28T06:13:47;100580.78;;;6.26;78.85
48926;BME280;39838;59.938;30.642;2023-04-28T06:16:14;100582.53;;;6.29;78.45
48926;BME280;39838;59.938;30.642;2023-04-28T06:18:44;100588.56;;;6.29;78.28
48926;BME280;39838;59.938;30.642;2023-04-28T06:21:11;100584.50;;;6.42;78.18
48926;BME280;39838;59.938;30.642;2023-04-28T06:23:38;100586.47;;;6.55;77.78
48926;BME280;39838;59.938;30.642;2023-04-28T06:26:07;100588.94;;;6.49;77.02
48926;BME280;39838;59.938;30.642;2023-04-28T06:28:34;100591.59;;;6.52;77.29
48926;BME280;39838;59.938;30.642;2023-04-28T06:31:01;100590.97;;;6.66;77.39
48926;BME280;39838;59.938;30.642;2023-04-28T06:33:28;100592.00;;;6.77;77.16
48926;BME280;39838;59.938;30.642;2023-04-28T06:35:57;100591.34;;;6.90;76.91
48926;BME280;39838;59.938;30.642;2023-04-28T06:38:24;100598.47;;;7.03;76.41
48926;BME280;39838;59.938;30.642;2023-04-28T06:40:51;100606.38;;;7.14;75.72
48926;BME280;39838;59.938;30.642;2023-04-28T06:43:18;100599.63;;;7.22;75.78
48926;BME280;39838;59.938;30.642;2023-04-28T06:45:46;100609.22;;;7.31;75.13
48926;BME280;39838;59.938;30.642;2023-04-28T06:48:13;100613.50;;;7.29;74.38
48926;BME280;39838;59.938;30.642;2023-04-28T06:50:40;100615.22;;;7.27;74.26
48926;BME280;39838;59.938;30.642;2023-04-28T06:53:09;100613.47;;;7.26;74.50
48926;BME280;39838;59.938;30.642;2023-04-28T06:55:36;100612.81;;;7.41;75.16
48926;BME280;39838;59.938;30.642;2023-04-28T06:58:03;100614.78;;;7.58;74.08
48926;BME280;39838;59.938;30.642;2023-04-28T07:00:30;100618.44;;;7.73;74.20
48926;BME280;39838;59.938;30.642;2023-04-28T07:02:57;100613.38;;;7.82;73.88
48926;BME280;39838;59.938;30.642;2023-04-28T07:05:24;100616.13;;;7.94;74.20
48926;BME280;39838;59.938;30.642;2023-04-28T07:07:52;100617.19;;;8.11;73.09
48926;BME280;39838;59.938;30.642;2023-04-28T07:10:21;100623.53;;;8.35;72.80
48926;BME280;39838;59.938;30.642;2023-04-28T07:12:49;100626.38;;;8.56;72.57
48926;BME280;39838;59.938;30.642;2023-04-28T07:15:16;100636.81;;;8.65;71.08
48926;BME280;39838;59.938;30.642;2023-04-28T07:17:43;100618.41;;;8.39;70.03
48926;BME280;39838;59.938;30.642;2023-04-28T07:20:11;100632.19;;;8.35;70.21
48926;BME280;39838;59.938;30.642;2023-04-28T07:22:39;100629.41;;;8.23;70.89
48926;BME280;39838;59.938;30.642;2023-04-28T07:25:07;100636.41;;;8.30;71.19
48926;BME280;39838;59.938;30.642;2023-04-28T07:27:35;100631.41;;;8.45;71.21
48926;BME280;39838;59.938;30.642;2023-04-28T07:30:04;100633.34;;;8.63;70.28
48926;BME280;39838;59.938;30.642;2023-04-28T07:32:32;100629.22;;;8.82;69.28
48926;BME280;39838;59.938;30.642;2023-04-28T07:34:59;100641.44;;;8.97;69.30
48926;BME280;39838;59.938;30.642;2023-04-28T07:37:27;100636.28;;;9.01;68.16
48926;BME280;39838;59.938;30.642;2023-04-28T07:39:55;100631.13;;;9.08;67.02
48926;BME280;39838;59.938;30.642;2023-04-28T07:42:22;100629.56;;;9.23;67.14
48926;BME280;39838;59.938;30.642;2023-04-28T07:44:51;100631.38;;;9.38;66.76
48926;BME280;39838;59.938;30.642;2023-04-28T07:47:18;100643.59;;;9.57;66.18
48926;BME280;39838;59.938;30.642;2023-04-28T07:49:45;100633.31;;;9.74;65.40
48926;BME280;39838;59.938;30.642;2023-04-28T07:52:12;100646.41;;;9.94;65.14
48926;BME280;39838;59.938;30.642;2023-04-28T07:54:39;100644.72;;;10.07;64.56
48926;BME280;39838;59.938;30.642;2023-04-28T07:57:06;100643.88;;;10.08;63.06
48926;BME280;39838;59.938;30.642;2023-04-28T07:59:34;100645.59;;;10.04;62.41
48926;BME280;39838;59.938;30.642;2023-04-28T08:02:03;100650.75;;;9.97;61.89
48926;BME280;39838;59.938;30.642;2023-04-28T08:04:31;100639.44;;;9.89;62.14
48926;BME280;39838;59.938;30.642;2023-04-28T08:06:59;100649.81;;;9.82;61.65
48926;BME280;39838;59.938;30.642;2023-04-28T08:09:26;100641.06;;;9.65;61.59
48926;BME280;39838;59.938;30.642;2023-04-28T08:11:54;100632.28;;;9.45;60.31
48926;BME280;39838;59.938;30.642;2023-04-28T08:14:21;100639.97;;;9.34;61.95
48926;BME280;39838;59.938;30.642;2023-04-28T08:16:48;100640.72;;;9.18;61.39
48926;BME280;39838;59.938;30.642;2023-04-28T08:19:16;100641.50;;;9.06;62.94
48926;BME280;39838;59.938;30.642;2023-04-28T08:21:44;100642.47;;;9.17;63.34
48926;BME280;39838;59.938;30.642;2023-04-28T08:24:11;100639.19;;;9.43;63.09
48926;BME280;39838;59.938;30.642;2023-04-28T08:26:38;100644.59;;;9.78;62.82
48926;BME280;39838;59.938;30.642;2023-04-28T08:29:05;100639.53;;;10.04;61.83
48926;BME280;39838;59.938;30.642;2023-04-28T08:31:32;100630.16;;;10.35;61.20
48926;BME280;39838;59.938;30.642;2023-04-28T08:33:59;100637.97;;;10.47;60.96
48926;BME280;39838;59.938;30.642;2023-04-28T08:36:28;100637.97;;;10.49;60.00
48926;BME280;39838;59.938;30.642;2023-04-28T08:38:57;100632.75;;;10.32;59.08
48926;BME280;39838;59.938;30.642;2023-04-28T08:41:25;100641.38;;;10.23;59.08
48926;BME280;39838;59.938;30.642;2023-04-28T08:43:54;100629.19;;;10.22;59.39
48926;BME280;39838;59.938;30.642;2023-04-28T08:46:22;100619.75;;;10.27;59.18
48926;BME280;39838;59.938;30.642;2023-04-28T08:48:51;100636.22;;;10.42;58.81
48926;BME280;39838;59.938;30.642;2023-04-28T08:51:26;100624.09;;;10.39;58.24
48926;BME280;39838;59.938;30.642;2023-04-28T08:53:58;100629.31;;;10.47;58.39
48926;BME280;39838;59.938;30.642;2023-04-28T08:56:26;100630.22;;;10.58;57.95
48926;BME280;39838;59.938;30.642;2023-04-28T08:59:01;100631.09;;;10.60;57.73
48926;BME280;39838;59.938;30.642;2023-04-28T09:01:29;100629.34;;;10.62;57.13
48926;BME280;39838;59.938;30.642;2023-04-28T09:03:56;100624.16;;;10.68;57.08
48926;BME280;39838;59.938;30.642;2023-04-28T09:06:31;100599.88;;;10.48;56.62
48926;BME280;39838;59.938;30.642;2023-04-28T09:09:21;100618.06;;;10.55;56.38
48926;BME280;39838;59.938;30.642;2023-04-28T09:11:50;100620.69;;;10.54;56.64
48926;BME280;39838;59.938;30.642;2023-04-28T09:14:18;100622.44;;;10.59;57.50
48926;BME280;39838;59.938;30.642;2023-04-28T09:16:45;100629.38;;;10.65;57.10
48926;BME280;39838;59.938;30.642;2023-04-28T09:19:13;100622.44;;;10.73;55.42
48926;BME280;39838;59.938;30.642;2023-04-28T09:21:48;100618.09;;;10.75;54.90
48926;BME280;39838;59.938;30.642;2023-04-28T09:24:29;100624.19;;;10.74;55.07
48926;BME280;39838;59.938;30.642;2023-04-28T09:26:57;100614.63;;;10.70;54.62
48926;BME280;39838;59.938;30.642;2023-04-28T09:29:25;100613.78;;;10.73;54.97
48926;BME280;39838;59.938;30.642;2023-04-28T09:31:53;100617.22;;;10.70;54.30
48926;BME280;39838;59.938;30.642;2023-04-28T09:34:20;100605.09;;;10.60;53.42
48926;BME280;39838;59.938;30.642;2023-04-28T09:36:47;100614.66;;;10.64;53.70
48926;BME280;39838;59.938;30.642;2023-04-28T09:39:28;100612.03;;;10.50;52.65
48926;BME280;39838;59.938;30.642;2023-04-28T09:41:56;100622.38;;;10.36;51.57
48926;BME280;39838;59.938;30.642;2023-04-28T09:44:28;100617.94;;;10.14;52.38
48926;BME280;39838;59.938;30.642;2023-04-28T09:46:55;100615.31;;;10.08;52.49
48926;BME280;39838;59.938;30.642;2023-04-28T09:49:22;100611.84;;;10.07;52.29
48926;BME280;39838;59.938;30.642;2023-04-28T09:51:50;100608.44;;;10.16;51.79
48926;BME280;39838;59.938;30.642;2023-04-28T09:54:20;100605.88;;;10.27;51.12
48926;BME280;39838;59.938;30.642;2023-04-28T09:56:50;100603.34;;;10.44;51.51
48926;BME280;39838;59.938;30.642;2023-04-28T09:59:18;100609.44;;;10.70;50.86
48926;BME280;39838;59.938;30.642;2023-04-28T10:01:46;100614.66;;;10.85;49.64
48926;BME280;39838;59.938;30.642;2023-04-28T10:04:14;100612.06;;;10.88;49.78
48926;BME280;39838;59.938;30.642;2023-04-28T10:06:41;100615.53;;;10.93;49.42
48926;BME280;39838;59.938;30.642;2023-04-28T10:09:10;100620.72;;;10.93;48.27
48926;BME280;39838;59.938;30.642;2023-04-28T10:11:38;100606.00;;;10.92;47.56
48926;BME280;39838;59.938;30.642;2023-04-28T10:14:07;100615.50;;;10.97;47.40
48926;BME280;39838;59.938;30.642;2023-04-28T10:16:35;100614.66;;;11.01;47.58
48926;BME280;39838;59.938;30.642;2023-04-28T10:19:03;100613.78;;;11.02;47.15
48926;BME280;39838;59.938;30.642;2023-04-28T10:21:32;100601.66;;;11.10;46.32
48926;BME280;39838;59.938;30.642;2023-04-28T10:24:08;100614.66;;;11.20;46.37
48926;BME280;39838;59.938;30.642;2023-04-28T10:27:07;100606.00;;;11.20;42.40
48926;BME280;39838;59.938;30.642;2023-04-28T10:29:36;100609.41;;;11.43;44.40
48926;BME280;39838;59.938;30.642;2023-04-28T10:32:30;100604.19;;;11.49;44.09
48926;BME280;39838;59.938;30.642;2023-04-28T10:38:04;100607.69;;;11.44;43.52
48926;BME280;39838;59.938;30.642;2023-04-28T10:40:32;100612.91;;;11.36;41.94
48926;BME280;39838;59.938;30.642;2023-04-28T10:43:00;100599.03;;;11.22;42.13
48926;BME280;39838;59.938;30.642;2023-04-28T10:46:01;100595.59;;;11.26;41.98
48926;BME280;39838;59.938;30.642;2023-04-28T10:48:51;100595.56;;;11.28;41.30
48926;BME280;39838;59.938;30.642;2023-04-28T10:51:22;100614.63;;;11.30;40.65
48926;BME280;39838;59.938;30.642;2023-04-28T10:54:22;100607.72;;;11.09;38.73
48926;BME280;39838;59.938;30.642;2023-04-28T10:57:20;100608.59;;;11.02;39.16
48926;BME280;39838;59.938;30.642;2023-04-28T10:59:48;100604.28;;;11.11;40.32
48926;BME280;39838;59.938;30.642;2023-04-28T11:05:21;100614.69;;;11.11;38.83
48926;BME280;39838;59.938;30.642;2023-04-28T11:11:18;100616.38;;;10.88;38.48
48926;BME280;39838;59.938;30.642;2023-04-28T11:13:46;100613.78;;;10.73;38.67
48926;BME280;39838;59.938;30.642;2023-04-28T11:16:15;100612.91;;;10.64;39.16
48926;BME280;39838;59.938;30.642;2023-04-28T11:18:51;100607.69;;;10.69;39.40
48926;BME280;39838;59.938;30.642;2023-04-28T11:21:21;100608.56;;;10.76;37.16
48926;BME280;39838;59.938;30.642;2023-04-28T11:23:49;100603.41;;;10.77;37.17
48926;BME280;39838;59.938;30.642;2023-04-28T11:26:17;100598.16;;;10.70;37.83
48926;BME280;39838;59.938;30.642;2023-04-28T11:28:49;100599.06;;;10.72;38.43
48926;BME280;39838;59.938;30.642;2023-04-28T11:31:17;100603.41;;;10.77;37.51
48926;BME280;39838;59.938;30.642;2023-04-28T11:33:52;100609.44;;;10.67;37.09
48926;BME280;39838;59.938;30.642;2023-04-28T11:36:29;100608.59;;;10.71;37.66
48926;BME280;39838;59.938;30.642;2023-04-28T11:38:58;100592.13;;;10.87;37.61
48926;BME280;39838;59.938;30.642;2023-04-28T11:41:25;100603.38;;;11.17;36.18
48926;BME280;39838;59.938;30.642;2023-04-28T11:43:52;100604.22;;;11.36;36.90
48926;BME280;39838;59.938;30.642;2023-04-28T11:46:21;100604.22;;;11.53;36.48
48926;BME280;39838;59.938;30.642;2023-04-28T11:48:59;100606.78;;;11.51;36.20
48926;BME280;39838;59.938;30.642;2023-04-28T11:51:33;100601.59;;;11.53;35.82
48926;BME280;39838;59.938;30.642;2023-04-28T11:54:01;100598.16;;;11.43;35.42
48926;BME280;39838;59.938;30.642;2023-04-28T11:56:29;100591.25;;;11.28;35.02
48926;BME280;39838;59.938;30.642;2023-04-28T11:59:00;100600.81;;;11.11;34.46
48926;BME280;39838;59.938;30.642;2023-04-28T12:01:29;100596.47;;;10.94;34.80
48926;BME280;39838;59.938;30.642;2023-04-28T12:03:56;100593.00;;;10.92;34.63
48926;BME280;39838;59.938;30.642;2023-04-28T12:06:23;100593.00;;;10.99;34.24
48926;BME280;39838;59.938;30.642;2023-04-28T12:08:52;100590.41;;;11.02;34.54
48926;BME280;39838;59.938;30.642;2023-04-28T12:11:19;100594.75;;;11.06;34.22
48926;BME280;39838;59.938;30.642;2023-04-28T12:14:05;100595.59;;;11.03;33.64
48926;BME280;39838;59.938;30.642;2023-04-28T12:16:42;100612.06;;;11.05;33.34
48926;BME280;39838;59.938;30.642;2023-04-28T12:19:10;100592.16;;;10.98;34.12
48926;BME280;39838;59.938;30.642;2023-04-28T12:21:40;100600.78;;;11.23;34.78
48926;BME280;39838;59.938;30.642;2023-04-28T12:24:19;100606.81;;;11.59;34.59
48926;BME280;39838;59.938;30.642;2023-04-28T12:26:47;100613.63;;;12.02;33.94
48926;BME280;39838;59.938;30.642;2023-04-28T12:29:36;100602.97;;;12.48;32.44
48926;BME280;39838;59.938;30.642;2023-04-28T12:32:08;100606.97;;;12.95;31.78
48926;BME280;39838;59.938;30.642;2023-04-28T12:34:36;100605.50;;;13.60;31.38
48926;BME280;39838;59.938;30.642;2023-04-28T12:37:05;100598.69;;;14.21;31.08
48926;BME280;39838;59.938;30.642;2023-04-28T12:39:34;100597.34;;;14.56;30.31
48926;BME280;39838;59.938;30.642;2023-04-28T12:42:03;100608.78;;;15.06;30.17
48926;BME280;39838;59.938;30.642;2023-04-28T12:44:34;100609.97;;;15.39;28.32
48926;BME280;39838;59.938;30.642;2023-04-28T12:47:03;100601.56;;;15.69;28.00
48926;BME280;39838;59.938;30.642;2023-04-28T12:49:30;100608.38;;;15.78;28.45
48926;BME280;39838;59.938;30.642;2023-04-28T12:51:57;100599.03;;;16.08;27.25
48926;BME280;39838;59.938;30.642;2023-04-28T12:54:24;100616.44;;;15.67;26.62
48926;BME280;39838;59.938;30.642;2023-04-28T12:56:53;100616.72;;;15.01;27.29
48926;BME280;39838;59.938;30.642;2023-04-28T12:59:20;100616.31;;;14.71;27.52
48926;BME280;39838;59.938;30.642;2023-04-28T13:01:48;100614.94;;;14.46;28.08
48926;BME280;39838;59.938;30.642;2023-04-28T13:04:16;100595.88;;;14.38;28.90